KBTV/BTV METAR and TAF weather

Enter ICAO airport designator
Station Type Date Time Source
KBTV METAR 2019/08/24 08:54 UTC NOAA

KBTV 240854Z 00000KT 10SM CLR 11/09 A3016 RMK AO2 SLP215 T01110094 51015


Station Type Date Time Source
KBTV Decoded METAR 2019/08/24 08:54 UTC NOAA

Station name not available
Aug 24, 2019 - 04:54 AM EDT / 2019.08.24 0854 UTC
Wind: Calm:0
Visibility: 10 mile(s):0
Sky conditions: clear
Temperature: 52.0 F (11.1 C)
Dew Point: 48.9 F (9.4 C)
Relative Humidity: 89%
Pressure (altimeter): 30.16 in. Hg (1021 hPa)
Pressure tendency: 0.04 inches (1.5 hPa) higher than three hours ago
ob: KBTV 240854Z 00000KT 10SM CLR 11/09 A3016 RMK AO2 SLP215 T01110094 51015
cycle: 9

Station Type Date Time Source
KBTV TAF 2019/08/24 06:22 UTC NOAA

TAF KBTV 240520Z 2406/2506 VRB03KT P6SM SKC
FM241600 34008KT P6SM SCT060
FM250000 03003KT P6SM FEW070

Example: see airport list